Flight Track Log - Related Links

Times and Time Zones

All times are in EDT time to prevent confusion due to time zone crossing. See the N373LD flight status page for this flight to view local times or setup timezone preferences in your user account.


Time Position Orientation Groundspeed Altitude Reporting Facility
EDT Latitude Longitude Course Direction KTS MPH feet Rate Location/Type
Fri 10:13:41 AM 35.5264 -101.3131 158° South 194 223 8,500  Level Albuquerque Center
Fri 10:14:42 AM 35.4714 -101.2828 156° South 213 245 9,500 1,268 Climbing Albuquerque Center
Fri 10:15:44 AM 35.4272 -101.2594 157° South 187 215 11,100 1,463 Climbing Albuquerque Center
Fri 10:16:45 AM 35.3833 -101.2369 157° South 175 201 12,500 1,268 Climbing Albuquerque Center
Fri 10:17:00 AM 35.6969 -101.3905 147° Southeast  Level FlightAware Approximate
Fri 10:17:47 AM 35.3383 -101.2133 157° South 175 201 13,700  Level Albuquerque Center
Fri 10:18:49 AM 35.2897 -101.1875 157° South 182 209 14,900 1,220 Climbing Albuquerque Center
Fri 10:19:50 AM 35.2400 -101.1617 157° South 187 215 16,200 1,415 Climbing Albuquerque Center
Fri 10:20:52 AM 35.1803 -101.1303 157° South 190 219 17,800 1,306 Climbing Albuquerque Center
Fri 10:21:54 AM 35.1297 -101.1044 157° South 192 221 18,900 1,073 Climbing Albuquerque Center
Fri 10:22:55 AM 35.0797 -101.0786 157° South 193 222 20,000 1,122 Climbing Albuquerque Center
Fri 10:23:57 AM 35.0286 -101.0514 156° South 194 223 21,200 1,161 Climbing Albuquerque Center
Fri 10:24:59 AM 34.9756 -101.0247 158° South 198 228 22,400 1,161 Climbing Albuquerque Center
Fri 10:26:01 AM 34.9236 -100.9972 157° South 203 234 23,600 1,073 Climbing Albuquerque Center
Fri 10:27:02 AM 34.8694 -100.9708 158° South 204 235 24,600 1,073 Climbing Albuquerque Center
Fri 10:28:04 AM 34.8150 -100.9411 156° South 210 242 25,800 1,016 Climbing Albuquerque Center
Fri 10:29:06 AM 34.7483 -100.9072 157° South 212 244 26,700 484 Climbing Albuquerque Center
Fri 10:30:08 AM 34.6867 -100.8761 157° South 230 265 26,800 48 Climbing Albuquerque Center
Fri 10:31:10 AM 34.6183 -100.8400 156° South 258 297 26,800  Level Albuquerque Center
Fri 10:32:21 AM 34.5347 -100.8000 158° South 265 305 26,800  Level Fort Worth Center
Fri 10:33:24 AM 34.4675 -100.7647 157° South 265 305 26,800  Level Fort Worth Center
Fri 10:34:26 AM 34.4003 -100.7306 157° South 264 304 26,800  Level Fort Worth Center
Fri 10:35:28 AM 34.3336 -100.6956 157° South 263 303 26,800  Level Fort Worth Center
Fri 10:36:30 AM 34.2525 -100.6536 157° South 263 303 26,800  Level Fort Worth Center
Fri 10:37:32 AM 34.1836 -100.6194 158° South 264 304 26,800  Level Fort Worth Center
Fri 10:38:34 AM 34.1156 -100.5864 158° South 264 304 26,800  Level Fort Worth Center
Fri 10:39:36 AM 34.0458 -100.5497 156° South 264 304 26,800  Level Fort Worth Center
Fri 10:40:38 AM 33.9786 -100.5150 157° South 264 304 26,800  Level Fort Worth Center
Fri 10:41:41 AM 33.9114 -100.4811 157° South 263 303 26,800 48 Level Fort Worth Center
Fri 10:42:43 AM 33.8425 -100.4489 159° South 263 303 26,900 48 Climbing Fort Worth Center
Fri 10:43:45 AM 33.7764 -100.4144 157° South 263 303 26,900 48 Level Fort Worth Center
Fri 10:44:47 AM 33.6950 -100.3758 158° South 262 302 27,000 48 Climbing Fort Worth Center
Fri 10:45:49 AM 33.6272 -100.3417 157° South 262 302 27,000  Level Fort Worth Center
Fri 10:46:51 AM 33.5619 -100.3081 157° South 258 297 27,000  Level Fort Worth Center
Fri 10:47:53 AM 33.4917 -100.2750 159° South 264 304 27,000  Level Fort Worth Center
Fri 10:48:55 AM 33.4244 -100.2475 161° South 260 299 27,000  Level Fort Worth Center
Fri 10:49:58 AM 33.3547 -100.2178 160° South 261 300 27,000  Level Fort Worth Center
Fri 10:51:00 AM 33.2708 -100.1847 162° South 262 302 27,000  Level Fort Worth Center
Fri 10:52:02 AM 33.2017 -100.1561 161° South 262 302 27,000  Level Fort Worth Center
Fri 10:53:04 AM 33.1311 -100.1278 161° South 262 302 27,000  Level Fort Worth Center
Fri 10:54:06 AM 33.0631 -100.0994 161° South 262 302 27,000  Level Fort Worth Center
Fri 10:55:08 AM 32.9939 -100.0706 161° South 262 302 27,000  Level Fort Worth Center
Fri 10:56:10 AM 32.9247 -100.0428 161° South 262 302 27,000  Level Fort Worth Center
Fri 10:57:13 AM 32.8428 -100.0100 161° South 262 302 27,000  Level Fort Worth Center
Fri 10:58:15 AM 32.7742 -99.9831 162° South 262 302 27,000  Level Fort Worth Center
Fri 10:59:17 AM 32.7083 -99.9547 160° South 262 302 27,000  Level Fort Worth Center
Fri 11:00:19 AM 32.6414 -99.9269 161° South 261 300 27,000  Level Fort Worth Center
Fri 11:01:21 AM 32.5572 -99.8944 162° South 263 303 27,000  Level Fort Worth Center
Fri 11:02:23 AM 32.4883 -99.8664 161° South 263 303 27,000  Level Fort Worth Center
Fri 11:03:25 AM 32.4217 -99.8311 156° South 262 302 27,000  Level Fort Worth Center
Fri 11:04:28 AM 32.3536 -99.7969 157° South 264 304 27,000  Level Fort Worth Center
Fri 11:05:30 AM 32.2861 -99.7611 156° South 266 306 27,000  Level Fort Worth Center
Fri 11:06:32 AM 32.2042 -99.7181 156° South 266 306 27,000  Level Fort Worth Center
Fri 11:07:34 AM 32.1364 -99.6833 157° South 266 306 27,000  Level Fort Worth Center
Fri 11:08:36 AM 32.0686 -99.6658 168° South 249 287 27,000  Level Fort Worth Center
Fri 11:09:38 AM 32.0003 -99.6503 169° South 248 285 27,000  Level Fort Worth Center
Fri 11:10:40 AM 31.9308 -99.6319 167° South 250 288 27,000  Level Fort Worth Center
Fri 11:11:43 AM 31.8622 -99.6164 169° South 251 289 27,000  Level Fort Worth Center
Fri 11:12:45 AM 31.7803 -99.5964 168° South 250 288 27,000  Level Fort Worth Center
Fri 11:13:47 AM 31.7111 -99.5786 168° South 251 289 27,000  Level Fort Worth Center
Fri 11:14:49 AM 31.6433 -99.5625 169° South 251 289 27,000  Level Fort Worth Center
Fri 11:15:51 AM 31.5750 -99.5456 168° South 251 289 27,000  Level Fort Worth Center
Fri 11:16:53 AM 31.5061 -99.5300 169° South 251 289 27,000  Level Fort Worth Center
Fri 11:17:55 AM 31.4383 -99.5136 168° South 251 289 27,000  Level Fort Worth Center
Fri 11:18:58 AM 31.3628 -99.4878 164° South 250 288 27,000  Level Fort Worth Center
Fri 11:20:00 AM 31.2978 -99.4417 149° Southeast 268 308 27,000  Level Fort Worth Center
Fri 11:21:02 AM 31.2311 -99.3958 150° Southeast 272 313 27,000  Level Fort Worth Center
Fri 11:22:04 AM 31.1653 -99.3508 150° Southeast 274 315 27,000 -195 Level Fort Worth Center
Fri 11:23:05 AM 31.0872 -99.2992 150° Southeast 274 315 26,600 -435 Descending Houston Center
Fri 11:24:08 AM 31.0183 -99.2514 149° Southeast 282 325 26,100 -480 Descending Houston Center
Fri 11:25:10 AM 30.9492 -99.2031 149° Southeast 285 328 25,600 -484 Descending Houston Center
Fri 11:26:12 AM 30.8803 -99.1572 150° Southeast 285 328 25,100 -484 Descending Houston Center
Fri 11:27:14 AM 30.8128 -99.1122 150° Southeast 283 326 24,600 -484 Descending Houston Center
Fri 11:28:16 AM 30.7464 -99.0669 150° Southeast 279 321 24,100 -726 Descending Houston Center
Fri 11:29:18 AM 30.6672 -99.0128 150° Southeast 278 320 23,100 -1,584 Descending Houston Center
Fri 11:30:21 AM 30.6003 -98.9700 151° Southeast 278 320 20,800 -2,208 Descending Houston Center
Fri 11:31:23 AM 30.5389 -98.9289 150° Southeast 262 302 18,500 -2,032 Descending Houston Center
Fri 11:32:25 AM 30.4803 -98.8894 150° Southeast 251 289 16,600 -1,887 Descending Houston Center
Fri 11:33:27 AM 30.4228 -98.8506 150° Southeast 244 281 14,600 -1,935 Descending Houston Center
Fri 11:34:29 AM 30.3686 -98.8144 150° Southeast 231 266 12,600 -2,035 Descending Houston Center
Fri 11:35:22 AM 30.3133 -98.7794 151° Southeast 218 251 10,700 -2,095 Descending Houston Center
Fri 11:35:32 AM 30.3072 -98.7728 137° Southeast 219 252 10,400 -1,714 Descending Houston Center
Fri 11:36:04 AM 30.2778 -98.7569 155° Southeast 211 243 9,500 -1,645 Descending Houston Center
Fri 11:36:34 AM 30.2519 -98.7364 145° Southeast 212 244 8,700 -1,082 Descending Houston Center
Fri 11:37:05 AM 30.2283 -98.7217 152° Southeast 209 241 8,400 -581 Descending Houston Center
Fri 11:37:36 AM 30.2025 -98.7036 149° Southeast 207 238 8,100 -295 Descending Houston Center
Fri 11:38:06 AM 30.1711 -98.7142 196° South 198 228 8,100  Level Houston Center
Fri 11:38:39 AM 30.1422 -98.7150 181° South 197 227 8,100  Level Houston Center
Fri 11:39:06 AM 30.1169 -98.7181 186° South 199 229 8,100  Level Houston Center
Fri 11:39:40 AM 30.0867 -98.7206 184° South 197 227 8,100  Level Houston Center
Fri 11:40:01 AM 30.0650 -98.7242 188° South 201 231 8,100  Level Houston Center
Fri 11:40:43 AM 30.0308 -98.7281 186° South 199 229 8,100  Level Houston Center
Fri 11:41:14 AM 30.0006 -98.7319 186° South 202 232 8,100  Level Houston Center
Fri 11:41:45 AM 29.9706 -98.7356 186° South 200 230 8,100 -109 Level Houston Center
Fri 11:42:09 AM 29.9486 -98.7381 186° South 203 234 8,000 -387 Descending Houston Center
Fri 11:42:47 AM 29.9131 -98.7311 170° South 208 239 7,700 -500 Descending Houston Center
Fri 11:43:09 AM 29.8911 -98.7303 178° South 203 234 7,500 -581 Descending Houston Center
Fri 11:43:49 AM 29.8553 -98.7236 171° South 198 228 7,100 -492 Descending Houston Center
Fri 11:44:10 AM 29.8381 -98.7222 176° South 191 220 7,000 -484 Descending Houston Center
Fri 11:44:51 AM 29.8033 -98.7175 173° South 192 221 6,600 -537 Descending Houston Center
Fri 11:45:17 AM 29.7786 -98.7147 174° South 186 214 6,400 -476 Descending Houston Center
Fri 11:45:54 AM 29.7464 -98.7089 171° South 191 220 6,100 -300 Descending Houston Center
Fri 11:46:17 AM 29.7250 -98.7017 164° South 196 226 6,100  Level Houston Center
Fri 11:46:56 AM 29.6944 -98.6917 164° South 192 221 6,100  Level Houston Center
Fri 11:47:18 AM 29.6753 -98.6861 166° South 190 219 6,100  Level Houston Center
Fri 11:47:58 AM 29.6408 -98.6742 163° South 189 217 6,100 -100 Level Houston Center
Fri 11:48:18 AM 29.6233 -98.6706 170° South 188 216 6,000 -290 Descending Houston Center
Fri 11:49:00 AM 29.5883 -98.6583 163° South 193 222 5,800 -327 Descending Houston Center
Fri 11:49:13 AM 29.5736 -98.6547 168° South 201 231 5,700 -486 Descending Houston Center
Fri 11:50:14 AM 29.5214 -98.6344 161° South 206 237 5,200 -482 Descending Houston Center
Fri 11:51:05 AM 29.4767 -98.6119 156° South 202 232 4,800 -590 Descending Houston Center
Fri 11:51:15 AM 29.4644 -98.6078 163° South 207 238 4,600 -677 Descending Houston Center
Fri 11:52:07 AM 29.4178 -98.5867 158° South 207 238 4,100 -727 Descending Houston Center
Fri 11:52:21 AM 29.4053 -98.5811 159° South 211 243 3,800 -871 Descending Houston Center
Fri 11:53:09 AM 29.3697 -98.5503 143° Southeast 207 238 3,200 -881 Descending Houston Center
Fri 11:54:10 AM 29.3331 -98.5033 132° Southeast 180 207 2,200 -919 Descending Houston Center
Fri 11:55:13 AM 29.3133 -98.4669 122° Southeast 161 185 1,300 -759 Descending Houston Center
Fri 11:55:29 AM 29.3186 -98.4597 50° Northeast 109 125 1,200 -102 Descending Houston Center
Fri 11:56:12 AM 29.3267 -98.4564 20° North 106 122 1,200  Level Houston Center
Fri 11:57:31 AM 29.3267 -98.4564 164° South 106 122 1,200  Level Houston Center

Login

Don't have an account? Register now (free) for customized features, flight alerts, and more!